Time;durP1;ratioP1;P1;durP2;ratioP2;P2;SDS_P1;SDS_P2;PMS_P1;PMS_P2;Temp;Humidity;BMP_temperature;BMP_pressure;BME280_temperature;BME280_humidity;BME280_pressure;Samples;Min_cycle;Max_cycle;Signal;HPM_P1;HPM_P2
2023/08/29 00:01:23;;;;;;;;;;;17.80;99.90;;;;;;4591557;19;19912;-63
2023/08/29 00:02:57;;;;;;;;;;;17.80;99.90;;;;;;4592461;19;20349;-63
2023/08/29 00:04:31;;;;;;;;;;;17.80;99.90;;;;;;4592131;19;19982;-63
2023/08/29 00:06:05;;;;;;;;;;;17.80;99.90;;;;;;4592728;19;19915;-63
2023/08/29 00:07:41;;;;;;;;;;;17.80;99.90;;;;;;4592342;19;19923;-63
2023/08/29 00:09:15;;;;;;;;;;;17.80;99.90;;;;;;4591144;19;19926;-63
2023/08/29 00:10:48;;;;;;;;;;;17.80;99.90;;;;;;4591407;19;20288;-63
2023/08/29 00:12:23;;;;;;;;;;;17.80;99.90;;;;;;4591115;19;19925;-63
2023/08/29 00:13:57;;;;;;;;;;;17.80;99.90;;;;;;4592138;19;20390;-63
2023/08/29 00:15:31;;;;;;;;;;;17.70;99.90;;;;;;4590987;19;20231;-63
2023/08/29 00:17:07;;;;;;;;;;;17.80;99.90;;;;;;4592184;19;19911;-63
2023/08/29 00:18:40;;;;;;;;;;;17.70;99.90;;;;;;4595399;19;19939;-63
2023/08/29 00:20:14;;;;;;;;;;;17.70;99.90;;;;;;4597053;19;19918;-63
2023/08/29 00:21:49;;;;;;;;;;;17.70;99.90;;;;;;4597123;19;19918;-63
2023/08/29 00:23:22;;;;;;;;;;;17.70;99.90;;;;;;4596815;19;19906;-63
2023/08/29 00:24:56;;;;;;;;;;;17.70;99.90;;;;;;4596201;19;20208;-63
2023/08/29 00:26:31;;;;;;;;;;;17.70;99.90;;;;;;4595317;19;20295;-63
2023/08/29 00:28:04;;;;;;;;;;;17.70;99.90;;;;;;4596573;19;19915;-63
2023/08/29 00:29:37;;;;;;;;;;;17.70;99.90;;;;;;4596961;19;20221;-63
2023/08/29 00:31:13;;;;;;;;;;;17.60;99.90;;;;;;4595401;19;19914;-63
2023/08/29 00:32:47;;;;;;;;;;;17.60;99.90;;;;;;4596630;19;19921;-63
2023/08/29 00:34:20;;;;;;;;;;;17.60;99.90;;;;;;4596875;19;19915;-63
2023/08/29 00:35:55;;;;;;;;;;;17.60;99.90;;;;;;4596881;19;20243;-63
2023/08/29 00:37:28;;;;;;;;;;;17.60;99.90;;;;;;4596546;19;19915;-63
2023/08/29 00:39:03;;;;;;;;;;;17.60;99.90;;;;;;4596815;19;20296;-63
2023/08/29 00:40:38;;;;;;;;;;;17.50;99.90;;;;;;4595961;19;19911;-63
2023/08/29 00:42:11;;;;;;;;;;;17.60;99.90;;;;;;4596730;19;20298;-63
2023/08/29 00:43:45;;;;;;;;;;;17.50;99.90;;;;;;4596711;19;19918;-63
2023/08/29 00:45:19;;;;;;;;;;;17.50;99.90;;;;;;4595150;19;19915;-63
2023/08/29 00:46:52;;;;;;;;;;;17.50;99.90;;;;;;4596679;19;19967;-63
2023/08/29 00:48:26;;;;;;;;;;;17.50;99.90;;;;;;4596421;19;19918;-63
2023/08/29 00:50:01;;;;;;;;;;;17.50;99.90;;;;;;4596320;19;19921;-63
2023/08/29 00:51:36;;;;;;;;;;;17.50;99.90;;;;;;4594465;19;19918;-63
2023/08/29 00:53:10;;;;;;;;;;;17.50;99.90;;;;;;4596182;19;20312;-63
2023/08/29 00:54:46;;;;;;;;;;;17.50;99.90;;;;;;4596199;19;20319;-63
2023/08/29 00:56:19;;;;;;;;;;;17.50;99.90;;;;;;4596461;19;19915;-63
2023/08/29 00:57:56;;;;;;;;;;;17.50;99.90;;;;;;4596405;19;19911;-63
2023/08/29 00:59:30;;;;;;;;;;;17.50;99.90;;;;;;4596222;19;19943;-63
2023/08/29 01:01:03;;;;;;;;;;;17.60;99.90;;;;;;4595105;19;20208;-63
2023/08/29 01:02:36;;;;;;;;;;;17.50;99.90;;;;;;4596355;19;19915;-63
2023/08/29 01:04:12;;;;;;;;;;;17.50;99.90;;;;;;4596351;19;19915;-63
2023/08/29 01:05:45;;;;;;;;;;;17.50;99.90;;;;;;4594702;19;19983;-63
2023/08/29 01:07:19;;;;;;;;;;;17.50;99.90;;;;;;4596020;19;19915;-63
2023/08/29 01:08:54;;;;;;;;;;;17.60;99.90;;;;;;4596218;19;19911;-63
2023/08/29 01:10:47;;;;;;;;;;;17.50;99.90;;;;;;4594506;19;20283;-63
2023/08/29 03:42:41;;;;;;;2.67;2.00;;;21.00;99.90;;;;;;4613089;19;20702;-65
2023/08/29 03:44:17;;;;;;;3.28;2.25;;;19.50;99.90;;;;;;4614780;19;20003;-66
2023/08/29 03:46:03;;;;;;;3.40;2.25;;;18.60;99.90;;;;;;4614671;19;20002;-65
2023/08/29 03:47:38;;;;;;;3.58;2.28;;;18.10;99.90;;;;;;4613606;19;20053;-65
2023/08/29 03:49:14;;;;;;;2.80;2.08;;;17.90;99.90;;;;;;4613263;19;20014;-64
2023/08/29 03:50:49;;;;;;;4.63;2.53;;;17.80;99.90;;;;;;4613761;19;20002;-65
2023/08/29 03:52:29;;;;;;;3.53;2.50;;;17.70;99.90;;;;;;4613458;19;19998;-65
2023/08/29 03:54:04;;;;;;;3.78;2.28;;;17.70;99.90;;;;;;4614333;19;19999;-64
2023/08/29 03:55:38;;;;;;;3.05;2.38;;;17.70;99.90;;;;;;4614694;19;20010;-65
2023/08/29 03:57:13;;;;;;;3.25;2.75;;;17.70;99.90;;;;;;4614528;19;19999;-66
2023/08/29 03:58:50;;;;;;;2.92;2.35;;;17.70;99.90;;;;;;4613783;19;20298;-64
2023/08/29 04:00:24;;;;;;;3.45;2.55;;;17.70;99.90;;;;;;4612353;19;20323;-64
2023/08/29 04:01:57;;;;;;;2.97;2.30;;;17.60;99.90;;;;;;4611045;19;20011;-64
2023/08/29 04:03:33;;;;;;;4.43;3.20;;;17.60;99.90;;;;;;4612082;19;20078;-64
2023/08/29 04:05:17;;;;;;;3.17;2.60;;;17.60;99.90;;;;;;4612925;19;20002;-65
2023/08/29 04:06:51;;;;;;;2.90;2.60;;;17.60;99.90;;;;;;4612914;19;20325;-64
2023/08/29 04:08:26;;;;;;;3.17;2.63;;;17.60;99.90;;;;;;4614268;19;20363;-64
2023/08/29 04:10:01;;;;;;;3.33;2.67;;;17.60;99.90;;;;;;4613992;19;20032;-64
2023/08/29 04:11:35;;;;;;;3.65;3.03;;;17.60;99.90;;;;;;4612654;19;19998;-65
2023/08/29 04:13:10;;;;;;;3.92;3.35;;;17.60;99.90;;;;;;4613001;19;20002;-64
2023/08/29 04:14:44;;;;;;;3.80;3.03;;;17.60;99.90;;;;;;4613916;19;19998;-64
2023/08/29 04:16:18;;;;;;;4.35;3.42;;;17.60;99.90;;;;;;4614005;19;20002;-65
2023/08/29 04:17:54;;;;;;;3.45;3.00;;;17.50;99.90;;;;;;4614032;19;20003;-65
2023/08/29 04:19:29;;;;;;;4.97;3.78;;;17.50;99.90;;;;;;4614149;19;20009;-63
2023/08/29 04:21:03;;;;;;;3.70;3.03;;;17.50;99.90;;;;;;4613232;19;20010;-63
2023/08/29 04:22:39;;;;;;;4.80;3.40;;;17.50;99.90;;;;;;4613745;19;20006;-63
2023/08/29 04:24:12;;;;;;;4.05;3.42;;;17.50;99.90;;;;;;4613144;19;20006;-63
2023/08/29 04:25:47;;;;;;;4.18;3.28;;;17.50;99.90;;;;;;4612290;19;20002;-63
2023/08/29 04:27:22;;;;;;;3.78;3.30;;;17.50;99.90;;;;;;4613454;19;20080;-63
2023/08/29 04:28:56;;;;;;;4.10;3.50;;;17.50;99.90;;;;;;4613789;19;20353;-63
2023/08/29 04:30:30;;;;;;;5.60;3.22;;;17.50;99.90;;;;;;4613407;19;20020;-63
2023/08/29 04:32:05;;;;;;;4.68;3.78;;;17.50;99.90;;;;;;4613227;19;19999;-63
2023/08/29 04:33:42;;;;;;;4.20;3.80;;;17.50;99.90;;;;;;4613109;19;20433;-63
2023/08/29 04:35:16;;;;;;;4.57;3.78;;;17.50;99.90;;;;;;4613484;19;20007;-63
2023/08/29 04:36:51;;;;;;;4.78;3.88;;;17.40;99.90;;;;;;4612020;19;20014;-63
2023/08/29 04:38:25;;;;;;;4.80;4.13;;;17.50;99.90;;;;;;4613531;19;20333;-63
2023/08/29 04:39:59;;;;;;;4.88;4.10;;;17.50;99.90;;;;;;4613417;19;20012;-63
2023/08/29 04:41:35;;;;;;;4.63;3.85;;;17.50;99.90;;;;;;4612237;19;20010;-63
2023/08/29 04:43:09;;;;;;;5.00;4.47;;;17.50;99.90;;;;;;4613453;19;20015;-63
2023/08/29 04:44:43;;;;;;;4.60;4.20;;;17.50;99.90;;;;;;4613714;19;20320;-63
2023/08/29 04:46:19;;;;;;;4.53;4.03;;;17.50;99.90;;;;;;4613512;19;20311;-63
2023/08/29 04:47:53;;;;;;;5.00;4.32;;;17.50;99.90;;;;;;4613305;19;20011;-63
2023/08/29 04:49:27;;;;;;;4.30;3.90;;;17.50;99.90;;;;;;4613327;19;20417;-63
2023/08/29 04:51:04;;;;;;;5.20;4.40;;;17.50;99.90;;;;;;4612420;19;20006;-63
2023/08/29 04:52:46;;;;;;;5.20;3.95;;;17.50;99.90;;;;;;4610867;19;20007;-63
2023/08/29 04:54:28;;;;;;;4.78;4.28;;;17.50;99.90;;;;;;4593511;19;20020;-63
2023/08/29 04:56:07;;;;;;;5.53;5.03;;;17.50;99.90;;;;;;4595179;19;20003;-63
2023/08/29 04:57:44;;;;;;;5.72;4.72;;;17.50;99.90;;;;;;4594154;19;20020;-63
2023/08/29 04:59:18;;;;;;;5.20;4.65;;;17.50;99.90;;;;;;4595326;19;20006;-63
2023/08/29 05:00:53;;;;;;;5.20;4.68;;;17.50;99.90;;;;;;4594605;19;20070;-63
2023/08/29 05:02:27;;;;;;;5.25;4.75;;;17.50;99.90;;;;;;4593446;19;20003;-64
2023/08/29 05:04:01;;;;;;;5.85;4.60;;;17.50;99.90;;;;;;4594034;19;20006;-63
2023/08/29 05:05:37;;;;;;;5.82;4.47;;;17.60;99.90;;;;;;4594980;19;20322;-63
2023/08/29 05:07:13;;;;;;;4.78;4.28;;;17.60;99.90;;;;;;4595411;19;20024;-63
2023/08/29 05:08:47;;;;;;;6.07;5.03;;;17.60;99.90;;;;;;4595435;19;20002;-63
2023/08/29 05:10:23;;;;;;;4.70;4.30;;;17.60;99.90;;;;;;4595210;19;20002;-63
2023/08/29 05:11:57;;;;;;;4.85;4.25;;;17.60;99.90;;;;;;4595368;19;19999;-63
2023/08/29 05:13:31;;;;;;;5.18;4.65;;;17.60;99.90;;;;;;4595279;19;20002;-63
2023/08/29 05:15:06;;;;;;;4.80;4.20;;;17.70;99.90;;;;;;4595330;19;20014;-63
2023/08/29 05:16:40;;;;;;;4.80;4.30;;;17.70;99.90;;;;;;4595212;19;20005;-63
2023/08/29 05:18:16;;;;;;;5.38;4.50;;;17.70;99.90;;;;;;4595178;19;20020;-63
2023/08/29 05:19:52;;;;;;;5.53;4.85;;;17.70;99.90;;;;;;4595241;19;20085;-63
2023/08/29 05:21:26;;;;;;;5.45;4.53;;;17.70;99.90;;;;;;4592465;19;20511;-63
2023/08/29 05:23:01;;;;;;;4.90;4.00;;;17.70;99.90;;;;;;4594513;19;20002;-63
2023/08/29 05:24:37;;;;;;;5.50;4.90;;;17.70;99.90;;;;;;4594670;19;20015;-63
2023/08/29 05:26:13;;;;;;;5.65;4.78;;;17.80;99.90;;;;;;4589909;19;20025;-63
2023/08/29 05:27:54;;;;;;;5.63;4.97;;;17.80;99.90;;;;;;4591925;19;20014;-67
2023/08/29 05:29:42;;;;;;;5.32;4.82;;;17.80;99.90;;;;;;4593194;19;20010;-62
2023/08/29 05:31:17;;;;;;;5.68;5.07;;;17.80;99.90;;;;;;4590504;19;20018;-62
2023/08/29 05:32:53;;;;;;;5.03;4.53;;;17.80;99.90;;;;;;4592279;19;20002;-61
2023/08/29 05:34:29;;;;;;;5.63;5.13;;;17.80;99.90;;;;;;4594424;19;20066;-62
2023/08/29 05:36:05;;;;;;;5.80;5.22;;;17.80;99.90;;;;;;4594449;19;20006;-61
2023/08/29 05:37:39;;;;;;;5.40;4.90;;;17.80;99.90;;;;;;4594184;19;20130;-62
2023/08/29 05:39:15;;;;;;;5.57;4.97;;;17.80;99.90;;;;;;4594259;19;20101;-62
2023/08/29 05:40:52;;;;;;;5.82;5.22;;;17.80;99.90;;;;;;4593621;19;20418;-61
2023/08/29 05:42:26;;;;;;;7.55;5.78;;;17.80;99.90;;;;;;4592535;19;20086;-62
2023/08/29 05:44:03;;;;;;;6.63;5.82;;;17.80;99.90;;;;;;4594397;19;20006;-62
2023/08/29 05:45:37;;;;;;;8.15;5.63;;;17.80;99.90;;;;;;4593993;19;20024;-61
2023/08/29 05:47:12;;;;;;;7.22;5.25;;;17.80;99.90;;;;;;4592371;19;20014;-62
2023/08/29 05:48:49;;;;;;;6.43;5.72;;;17.80;99.90;;;;;;4593588;19;20016;-62
2023/08/29 05:50:23;;;;;;;5.65;5.05;;;17.80;99.90;;;;;;4593970;19;20027;-62
2023/08/29 05:51:57;;;;;;;6.45;5.85;;;17.80;99.90;;;;;;4592795;19;20328;-62
2023/08/29 05:53:32;;;;;;;5.65;4.90;;;17.80;99.90;;;;;;4593925;19;20070;-61
2023/08/29 05:55:06;;;;;;;5.35;4.85;;;17.80;99.90;;;;;;4593922;19;20006;-62
2023/08/29 05:56:40;;;;;;;5.63;4.90;;;17.80;99.90;;;;;;4594462;19;20406;-62
2023/08/29 05:58:16;;;;;;;6.00;5.40;;;17.80;99.90;;;;;;4594029;19;20014;-61
2023/08/29 05:59:51;;;;;;;6.32;5.25;;;17.80;99.90;;;;;;4593948;19;20446;-61
2023/08/29 06:01:26;;;;;;;6.35;5.75;;;17.80;99.90;;;;;;4593128;19;20015;-62
2023/08/29 06:03:05;;;;;;;6.30;5.50;;;17.90;99.90;;;;;;4593865;19;20010;-61
2023/08/29 06:04:40;;;;;;;6.05;5.45;;;17.90;99.90;;;;;;4592279;19;20082;-61
2023/08/29 06:06:14;;;;;;;5.55;5.05;;;17.90;99.90;;;;;;4592788;19;20002;-61
2023/08/29 06:07:51;;;;;;;5.88;5.28;;;17.90;99.90;;;;;;4593699;19;20320;-61
2023/08/29 06:09:26;;;;;;;6.03;5.43;;;17.90;99.90;;;;;;4593577;19;20017;-62
2023/08/29 06:11:06;;;;;;;5.82;5.25;;;17.90;99.90;;;;;;4592764;19;20031;-61
2023/08/29 06:12:41;;;;;;;6.78;6.07;;;17.90;99.90;;;;;;4593836;19;20017;-62
2023/08/29 06:14:15;;;;;;;6.05;5.38;;;17.90;99.90;;;;;;4593424;19;20085;-62
2023/08/29 06:15:49;;;;;;;5.22;4.72;;;17.90;99.90;;;;;;4593501;19;20058;-61
2023/08/29 06:17:24;;;;;;;5.97;5.45;;;17.90;99.90;;;;;;4593683;19;20031;-62
2023/08/29 06:18:59;;;;;;;5.55;5.05;;;17.90;99.90;;;;;;4593411;19;20074;-61
2023/08/29 06:20:33;;;;;;;5.90;4.88;;;17.90;99.90;;;;;;4591634;19;20010;-62
2023/08/29 06:22:09;;;;;;;4.43;3.65;;;18.20;99.90;;;;;;4592111;19;20305;-62
2023/08/29 06:23:43;;;;;;;5.30;3.47;;;18.60;99.90;;;;;;4593552;19;20313;-61
2023/08/29 06:25:16;;;;;;;5.00;4.03;;;19.00;99.90;;;;;;4593145;19;20011;-61
2023/08/29 06:26:52;;;;;;;6.53;4.00;;;19.30;99.90;;;;;;4593208;19;20010;-61
2023/08/29 06:28:25;;;;;;;7.38;3.72;;;19.60;99.90;;;;;;4593179;19;20023;-62
2023/08/29 06:29:59;;;;;;;4.53;2.90;;;19.80;99.90;;;;;;4593134;19;20437;-62
2023/08/29 06:31:35;;;;;;;3.47;2.65;;;20.00;99.90;;;;;;4592032;19;20019;-61
2023/08/29 06:33:08;;;;;;;3.90;2.88;;;20.10;99.90;;;;;;4592990;19;20070;-61
2023/08/29 06:34:43;;;;;;;5.22;3.20;;;20.30;99.90;;;;;;4593073;19;20010;-61
2023/08/29 06:36:18;;;;;;;5.65;3.00;;;20.40;99.90;;;;;;4593024;19;20006;-62
2023/08/29 06:37:55;;;;;;;10.07;4.00;;;20.50;99.90;;;;;;4592965;19;20445;-61
2023/08/29 06:39:30;;;;;;;10.50;4.30;;;20.60;99.90;;;;;;4592999;19;19998;-61
2023/08/29 06:41:04;;;;;;;7.78;3.50;;;20.70;99.90;;;;;;4592124;19;20010;-62
2023/08/29 06:42:39;;;;;;;9.00;3.78;;;20.70;99.90;;;;;;4591629;19;20018;-62
2023/08/29 06:44:14;;;;;;;6.40;3.60;;;20.80;99.90;;;;;;4592512;19;20028;-62
2023/08/29 06:45:49;;;;;;;5.38;3.13;;;20.90;99.90;;;;;;4592772;19;20306;-62
2023/08/29 06:47:27;;;;;;;4.60;2.85;;;20.90;99.90;;;;;;4592747;19;20006;-62
2023/08/29 06:49:01;;;;;;;6.05;2.65;;;21.00;99.90;;;;;;4592569;19;20006;-61
2023/08/29 06:50:35;;;;;;;5.00;2.88;;;21.10;99.90;;;;;;4592219;19;20066;-62
2023/08/29 06:52:10;;;;;;;7.65;3.80;;;21.10;99.90;;;;;;4592630;19;19998;-61
2023/08/29 06:53:44;;;;;;;6.35;3.58;;;21.20;99.90;;;;;;4592766;19;20007;-61
2023/08/29 06:55:18;;;;;;;7.38;4.00;;;21.20;99.90;;;;;;4592324;19;20002;-61
2023/08/29 06:56:55;;;;;;;5.90;2.85;;;21.20;99.90;;;;;;4592479;19;20429;-62
2023/08/29 06:58:30;;;;;;;3.00;2.35;;;21.20;99.90;;;;;;4592777;19;20039;-61
2023/08/29 07:00:04;;;;;;;3.55;2.50;;;21.20;99.90;;;;;;4592797;19;20020;-61
2023/08/29 07:01:40;;;;;;;3.53;2.55;;;21.20;99.90;;;;;;4591904;19;20010;-61
2023/08/29 07:03:16;;;;;;;4.20;2.58;;;21.30;99.90;;;;;;4592660;19;20017;-61
2023/08/29 07:04:51;;;;;;;5.53;3.28;;;21.30;99.90;;;;;;4592715;19;20382;-61
2023/08/29 07:06:28;;;;;;;3.97;2.60;;;21.30;99.90;;;;;;4592699;19;20066;-62
2023/08/29 07:08:04;;;;;;;6.72;2.60;;;21.40;99.90;;;;;;4592634;19;20006;-61
2023/08/29 07:09:38;;;;;;;3.40;2.45;;;21.40;99.90;;;;;;4592862;19;20006;-61
2023/08/29 07:11:13;;;;;;;4.03;2.60;;;21.40;99.90;;;;;;4591733;19;20017;-62
2023/08/29 07:12:47;;;;;;;3.30;2.33;;;21.40;99.90;;;;;;4591178;19;20006;-62
2023/08/29 07:14:21;;;;;;;4.10;2.92;;;21.40;99.90;;;;;;4592068;19;20009;-62
2023/08/29 07:15:57;;;;;;;3.40;2.40;;;21.50;99.90;;;;;;4592119;19;20026;-61
2023/08/29 07:17:31;;;;;;;3.78;2.20;;;21.50;99.90;;;;;;4592132;19;20017;-62
2023/08/29 07:19:06;;;;;;;3.10;2.30;;;21.50;99.90;;;;;;4591983;19;20457;-61
2023/08/29 07:20:41;;;;;;;3.50;2.47;;;21.50;99.90;;;;;;4591337;19;20011;-62
2023/08/29 07:22:17;;;;;;;4.40;2.50;;;21.50;99.90;;;;;;4591306;19;20010;-62
2023/08/29 07:23:51;;;;;;;5.07;3.05;;;21.50;99.90;;;;;;4592078;19;20007;-62
2023/08/29 07:25:39;;;;;;;6.32;3.00;;;21.60;99.90;;;;;;4592084;19;20028;-62
2023/08/29 07:27:14;;;;;;;6.43;3.75;;;21.60;99.90;;;;;;4590648;19;20310;-62
2023/08/29 07:28:47;;;;;;;4.13;2.40;;;21.60;99.90;;;;;;4591735;19;20018;-62
2023/08/29 07:30:23;;;;;;;3.28;2.40;;;21.60;99.90;;;;;;4590510;19;20002;-62
2023/08/29 07:31:57;;;;;;;3.03;2.28;;;21.60;99.90;;;;;;4591594;19;20007;-62
2023/08/29 07:33:31;;;;;;;5.20;2.50;;;21.60;99.90;;;;;;4591823;19;20002;-64
2023/08/29 07:35:06;;;;;;;3.65;2.75;;;21.60;99.90;;;;;;4592023;19;20078;-63
2023/08/29 07:36:41;;;;;;;3.88;2.72;;;21.60;99.90;;;;;;4591622;19;19998;-65
2023/08/29 07:38:14;;;;;;;5.82;3.13;;;21.70;99.90;;;;;;4591535;19;20014;-63
2023/08/29 07:39:51;;;;;;;6.70;3.05;;;21.70;99.90;;;;;;4590359;19;20478;-66
2023/08/29 07:41:25;;;;;;;5.45;2.58;;;21.70;99.90;;;;;;4590077;19;20010;-65
2023/08/29 07:43:03;;;;;;;4.45;2.70;;;21.70;99.90;;;;;;4591559;19;20013;-64
2023/08/29 07:44:38;;;;;;;5.30;2.80;;;21.70;99.90;;;;;;4591719;19;20010;-64
2023/08/29 07:46:12;;;;;;;5.30;2.80;;;21.70;99.90;;;;;;4591736;19;20003;-64
2023/08/29 07:47:46;;;;;;;3.40;2.70;;;21.70;99.90;;;;;;4591664;19;20020;-65
2023/08/29 07:49:22;;;;;;;3.40;2.60;;;21.70;99.90;;;;;;4591688;19;20433;-65
2023/08/29 07:50:56;;;;;;;3.33;2.58;;;21.70;99.90;;;;;;4590422;19;20313;-65
2023/08/29 07:52:31;;;;;;;4.78;2.67;;;21.70;99.90;;;;;;4591357;19;20006;-65
2023/08/29 07:54:07;;;;;;;3.75;2.40;;;21.70;99.90;;;;;;4591186;19;20410;-65
2023/08/29 07:55:41;;;;;;;4.00;2.67;;;21.80;99.90;;;;;;4589138;19;20109;-64
2023/08/29 07:57:16;;;;;;;3.67;2.80;;;21.80;99.90;;;;;;4590359;19;20002;-66
2023/08/29 07:58:51;;;;;;;3.65;3.03;;;21.80;99.90;;;;;;4591225;19;20011;-64
2023/08/29 08:00:29;;;;;;;5.10;4.60;;;21.80;99.90;;;;;;4591653;19;20003;-64
2023/08/29 08:02:06;;;;;;;5.00;4.45;;;21.80;99.90;;;;;;4588736;19;20007;-64
2023/08/29 08:03:43;;;;;;;4.13;3.40;;;21.80;99.90;;;;;;4590079;19;20006;-64
2023/08/29 08:05:17;;;;;;;3.15;2.67;;;21.80;99.90;;;;;;4589838;19;20010;-63
2023/08/29 08:06:51;;;;;;;3.08;2.70;;;21.80;99.90;;;;;;4591094;19;20085;-66
2023/08/29 08:08:26;;;;;;;5.63;4.43;;;21.80;99.90;;;;;;4589065;19;20429;-78
2023/08/29 09:05:15;;;;;;;4.78;4.28;;;21.90;99.90;;;;;;4582057;19;20017;-69
2023/08/29 09:06:51;;;;;;;5.85;5.35;;;21.00;99.90;;;;;;4594673;19;20019;-69
2023/08/29 09:08:24;;;;;;;6.80;6.20;;;19.90;99.90;;;;;;4594704;19;20014;-69
2023/08/29 09:10:09;;;;;;;5.25;4.75;;;19.40;99.90;;;;;;4595267;19;20006;-68
2023/08/29 09:11:50;;;;;;;6.07;5.50;;;19.10;99.90;;;;;;4594736;19;20011;-69
2023/08/29 09:13:24;;;;;;;6.55;5.95;;;19.00;99.90;;;;;;4593243;19;20407;-68
2023/08/29 09:15:01;;;;;;;6.55;5.90;;;19.00;99.90;;;;;;4593626;19;20302;-78
2023/08/29 09:16:36;;;;;;;6.50;5.90;;;18.90;99.90;;;;;;4593556;19;20123;-69
2023/08/29 09:18:14;;;;;;;7.03;5.95;;;18.90;99.90;;;;;;4594352;19;20010;-69
2023/08/29 09:19:48;;;;;;;6.82;6.22;;;18.90;99.90;;;;;;4593671;19;20444;-68
2023/08/29 09:21:23;;;;;;;6.57;5.97;;;18.90;99.90;;;;;;4593251;19;20031;-68
2023/08/29 09:22:58;;;;;;;7.20;6.53;;;18.90;99.90;;;;;;4593072;19;20009;-74
2023/08/29 09:24:35;;;;;;;5.97;5.20;;;18.90;99.90;;;;;;4593367;19;20010;-76
2023/08/29 09:26:12;;;;;;;5.30;4.25;;;19.20;99.90;;;;;;4594318;19;20010;-74
2023/08/29 09:27:49;;;;;;;6.28;5.60;;;19.50;99.90;;;;;;4593582;19;20316;-43
2023/08/29 09:29:23;;;;;;;6.53;5.93;;;19.30;99.90;;;;;;4594130;19;20007;-43
2023/08/29 09:31:09;;;;;;;7.68;6.97;;;19.10;99.90;;;;;;4594455;19;20011;-42
2023/08/29 09:32:52;;;;;;;7.45;6.85;;;19.00;99.90;;;;;;4594530;19;20010;-42
2023/08/29 09:34:30;;;;;;;7.60;6.88;;;18.90;99.90;;;;;;4594105;19;20015;-61
2023/08/29 09:36:06;;;;;;;7.32;6.72;;;18.90;99.90;;;;;;4592746;19;20013;-61
2023/08/29 09:37:45;;;;;;;7.22;6.63;;;18.80;99.90;;;;;;4594126;19;20010;-61
2023/08/29 09:39:19;;;;;;;12.07;7.95;;;18.80;99.90;;;;;;4593012;19;20010;-61
2023/08/29 09:40:55;;;;;;;8.00;7.28;;;18.70;99.90;;;;;;4593749;19;20484;-62
2023/08/29 09:42:30;;;;;;;7.05;6.45;;;18.70;99.90;;;;;;4592594;19;20038;-61
2023/08/29 09:44:10;;;;;;;8.23;7.05;;;18.70;99.90;;;;;;4592946;19;19999;-61
2023/08/29 09:45:52;;;;;;;8.50;7.70;;;18.70;99.90;;;;;;4592648;19;20006;-61
2023/08/29 09:47:26;;;;;;;7.30;6.57;;;18.70;99.90;;;;;;4592905;19;20015;-61
2023/08/29 09:49:00;;;;;;;7.93;7.18;;;18.70;99.90;;;;;;4594156;19;20006;-61
2023/08/29 09:50:35;;;;;;;8.18;7.38;;;18.70;99.90;;;;;;4593652;19;20006;-61
2023/08/29 09:52:12;;;;;;;18.00;16.40;;;18.70;99.90;;;;;;4593926;19;20325;-61
2023/08/29 09:53:49;;;;;;;42.05;37.78;;;18.70;99.90;;;;;;4594060;19;19998;-61
2023/08/29 09:55:27;;;;;;;26.13;23.55;;;18.70;99.90;;;;;;4592377;19;20020;-61
2023/08/29 09:57:01;;;;;;;56.00;46.08;;;18.70;99.90;;;;;;4592678;19;19999;-61
2023/08/29 09:58:35;;;;;;;67.75;58.90;;;18.70;99.90;;;;;;4593496;19;20003;-61
2023/08/29 10:00:13;;;;;;;92.78;79.47;;;18.70;99.90;;;;;;4594423;19;20003;-62
2023/08/29 10:01:47;;;;;;;127.20;112.90;;;18.70;99.90;;;;;;4592966;19;20508;-61
2023/08/29 10:03:21;;;;;;;53.95;44.30;;;18.80;99.90;;;;;;4592237;19;20473;-60
2023/08/29 10:05:05;;;;;;;37.90;31.58;;;18.80;99.90;;;;;;4591913;19;20031;-59
2023/08/29 10:06:39;;;;;;;33.60;27.33;;;19.00;99.90;;;;;;4593554;19;20400;-60
2023/08/29 10:08:13;;;;;;;27.38;20.13;;;19.20;99.90;;;;;;4592403;19;20079;-60
2023/08/29 10:09:48;;;;;;;12.82;10.60;;;19.50;99.90;;;;;;4593350;19;20019;-60
2023/08/29 10:11:25;;;;;;;9.55;7.05;;;19.70;99.90;;;;;;4592448;19;20011;-60
2023/08/29 10:12:59;;;;;;;6.00;5.40;;;19.90;99.90;;;;;;4592192;19;20022;-60
2023/08/29 10:14:34;;;;;;;7.70;4.88;;;20.10;99.90;;;;;;4591767;19;20026;-59
2023/08/29 10:16:08;;;;;;;4.93;3.97;;;20.20;99.90;;;;;;4592312;19;20438;-60
2023/08/29 10:17:42;;;;;;;4.65;3.63;;;20.30;99.90;;;;;;4592653;19;20342;-60
2023/08/29 10:19:17;;;;;;;3.80;3.38;;;20.40;99.90;;;;;;4593568;19;20433;-60
2023/08/29 10:20:51;;;;;;;4.88;3.95;;;20.50;99.90;;;;;;4591710;19;20398;-60
2023/08/29 10:22:27;;;;;;;4.53;3.42;;;20.60;99.90;;;;;;4591008;19;20007;-59
2023/08/29 10:24:03;;;;;;;4.03;3.53;;;20.70;99.90;;;;;;4591880;19;20466;-59
2023/08/29 10:25:38;;;;;;;4.90;3.67;;;20.70;99.90;;;;;;4592418;19;20011;-59
2023/08/29 10:27:13;;;;;;;4.03;3.63;;;20.80;99.90;;;;;;4593850;19;20021;-59
2023/08/29 10:28:48;;;;;;;5.75;3.70;;;20.90;99.90;;;;;;4593167;19;20003;-59
2023/08/29 10:30:25;;;;;;;5.38;4.05;;;20.90;99.90;;;;;;4591471;19;20044;-59
2023/08/29 10:31:58;;;;;;;6.65;4.75;;;20.90;99.90;;;;;;4592666;19;20010;-59
2023/08/29 10:33:36;;;;;;;6.00;4.82;;;21.00;99.90;;;;;;4591571;19;20500;-58
2023/08/29 10:35:20;;;;;;;7.05;4.90;;;21.00;99.90;;;;;;4590958;19;20456;-58
2023/08/29 10:36:53;;;;;;;6.78;4.38;;;21.00;99.90;;;;;;4591908;19;20014;-59
2023/08/29 10:38:29;;;;;;;6.05;4.65;;;21.00;99.90;;;;;;4591861;19;20015;-59
2023/08/29 10:40:11;;;;;;;6.35;4.82;;;21.10;99.90;;;;;;4592805;19;20023;-59
2023/08/29 10:41:48;;;;;;;5.78;4.57;;;21.10;99.90;;;;;;4592483;19;20021;-59
2023/08/29 10:43:26;;;;;;;4.90;4.18;;;21.10;99.90;;;;;;4593055;19;20302;-58
2023/08/29 10:45:00;;;;;;;5.72;4.82;;;21.20;99.90;;;;;;4592284;19;20014;-59
2023/08/29 10:46:38;;;;;;;6.35;4.95;;;21.20;99.90;;;;;;4592984;19;20006;-59
2023/08/29 10:48:18;;;;;;;5.10;4.43;;;21.20;99.90;;;;;;4589685;19;20049;-59
2023/08/29 10:49:59;;;;;;;7.38;6.13;;;21.30;99.90;;;;;;4590380;19;20326;-59
2023/08/29 10:51:34;;;;;;;6.27;5.57;;;21.30;99.90;;;;;;4588450;19;20016;-58
2023/08/29 10:53:21;;;;;;;7.30;6.60;;;21.30;99.90;;;;;;4592702;19;20393;-59
2023/08/29 10:55:22;;;;;;;5.75;4.03;;;21.30;99.90;;;;;;4590837;19;20043;-59
2023/08/29 10:56:56;;;;;;;7.90;7.10;;;21.40;99.90;;;;;;4592913;19;20010;-59
2023/08/29 10:58:38;;;;;;;7.70;6.90;;;21.50;99.90;;;;;;4592928;19;20010;-58
2023/08/29 11:00:33;;;;;;;8.65;7.53;;;21.50;99.90;;;;;;4592270;19;20274;-48
2023/08/29 11:02:32;;;;;;;7.18;5.80;;;21.40;99.90;;;;;;4592064;19;20079;-50
2023/08/29 11:04:16;;;;;;;7.38;6.40;;;21.40;99.90;;;;;;4591828;19;20033;-49
2023/08/29 11:05:59;;;;;;;6.43;5.80;;;21.40;99.90;;;;;;4592471;19;20038;-50
2023/08/29 11:07:33;;;;;;;7.03;5.30;;;21.40;99.90;;;;;;4592256;19;20011;-51
2023/08/29 11:09:21;;;;;;;5.43;4.88;;;21.40;99.90;;;;;;4592577;19;20010;-50
2023/08/29 11:11:20;;;;;;;7.38;6.28;;;21.50;99.90;;;;;;4592432;19;20033;-52
2023/08/29 11:13:06;;;;;;;8.77;7.88;;;21.50;99.90;;;;;;4592048;19;20345;-51
2023/08/29 11:14:57;;;;;;;9.60;8.70;;;21.50;99.90;;;;;;4590069;19;20445;-50
2023/08/29 11:16:36;;;;;;;10.02;9.13;;;21.50;99.90;;;;;;4591893;19;20010;-49
2023/08/29 11:18:32;;;;;;;9.95;8.93;;;21.50;99.90;;;;;;4591916;19;20311;-49
2023/08/29 11:20:13;;;;;;;8.07;7.30;;;21.50;99.90;;;;;;4592140;19;20020;-50
2023/08/29 11:21:47;;;;;;;7.65;6.85;;;21.50;99.90;;;;;;4590319;19;20082;-50
2023/08/29 11:23:22;;;;;;;9.50;7.43;;;21.50;99.90;;;;;;4590542;19;20317;-51
2023/08/29 11:24:57;;;;;;;8.10;7.40;;;21.50;99.90;;;;;;4590905;19;20011;-51
2023/08/29 11:26:35;;;;;;;8.50;7.32;;;21.50;99.90;;;;;;4592371;19;20441;-50
2023/08/29 11:28:10;;;;;;;5.85;4.68;;;21.50;99.90;;;;;;4590945;19;20028;-51
2023/08/29 11:29:45;;;;;;;7.22;5.93;;;21.60;99.90;;;;;;4591394;19;20031;-50
2023/08/29 11:31:19;;;;;;;6.32;5.70;;;21.60;99.90;;;;;;4591771;19;20073;-50
2023/08/29 11:32:54;;;;;;;8.20;6.18;;;21.60;99.90;;;;;;4592217;19;20026;-49
2023/08/29 11:34:30;;;;;;;9.98;7.70;;;21.60;99.90;;;;;;4591734;19;20014;-51
2023/08/29 11:36:07;;;;;;;11.23;10.10;;;21.70;99.90;;;;;;4590826;19;20011;-48
2023/08/29 11:37:41;;;;;;;10.10;8.25;;;21.70;99.90;;;;;;4591841;19;20022;-49
2023/08/29 11:39:20;;;;;;;6.57;5.20;;;21.70;99.90;;;;;;4592110;19;20006;-50
2023/08/29 11:40:55;;;;;;;5.80;5.20;;;21.70;99.90;;;;;;4591953;19;20444;-49
2023/08/29 11:42:32;;;;;;;6.82;5.35;;;21.70;99.90;;;;;;4590733;19;20006;-48
2023/08/29 11:44:09;;;;;;;5.88;5.20;;;21.70;99.90;;;;;;4591884;19;20033;-50
2023/08/29 11:45:43;;;;;;;6.45;5.43;;;21.70;99.90;;;;;;4592028;19;20001;-49
2023/08/29 11:47:18;;;;;;;6.40;5.00;;;21.70;99.90;;;;;;4591877;19;20014;-49
2023/08/29 11:48:53;;;;;;;6.88;4.70;;;21.70;99.90;;;;;;4592026;19;20036;-50
2023/08/29 11:50:27;;;;;;;6.20;5.22;;;21.80;99.90;;;;;;4590490;19;20007;-67
2023/08/29 11:52:01;;;;;;;10.25;9.35;;;21.80;99.90;;;;;;4590815;19;20010;-72
2023/08/29 11:53:37;;;;;;;15.57;13.52;;;20.40;99.90;;;;;;4590799;19;20002;-71